Anzali, Iran

7:13 PM IRDT on May 28, 2015 (GMT +0430)
Rasht | | Change Station
CLOSE
Current Station
Airport
Location: Rasht,
Elevation: -30 ft
Nearby Weather Stations

Elev -30 ft 37.33 °N, 49.61 °E | Updated 13 minutes ago

Haze
Haze
88 °F
Feels Like 89 °F
N
0
Wind Variable Wind from North

Today
High -- | Low -- °F
--% Chance of Precip.
Yesterday
High -- | Low -- °F
Precip. -- in
5:54 AM 8:24 PM
Waxing Gibbous, 76% visible
Pressure 29.56 in
Visibility 2.5 miles
Clouds Few 8000 ft
Heat Index 89 °F
Dew Point 64 °F
Humidity 46%
Rainfall 0.00 in
Snow Depth Not available.
UV 1 out of 12
Pollen Not available.
Air Quality Not available.
Flu Activity Not available.
METAR OIGG 281430Z 00000KT 4000 HZ FEW080 31/18 Q1001

More Conditions Fewer Conditions

Pressure 29.56 in
Visibility 2.5 miles
Clouds Few 8000 ft
Heat Index 89 °F
Dew Point 64 °F
Humidity 46%
Rainfall 0.00 in
Snow Depth Not available.
UV 1 out of 12
Pollen Not available.
Air Quality Not available.
Flu Activity Not available.
METAR OIGG 281430Z 00000KT 4000 HZ FEW080 31/18 Q1001

More Conditions Fewer Conditions

10-Day Weather Forecast

Almanac

Astronomy

May. 28, 2015 Rise Set
Actual Time
Civil Twilight
Nautical Twilight
Astronomical Twilight
Moon
Length of Visible Light
Length of Day
Tomorrow will be .
, % of the Moon is Illuminated

Today's Extremes

Country Highs Country Lows

Community

WunderPhotos

Upload Photos

1,824,988 photos uploaded!

WunderBlogs® & News

Nearby

Air Quality

  Air Quality AQ Index Pollutant
Not available.

Snow Depth

Station Depth Elevation

Earthquake Activity

City Distance Mag. Time & Date
Minimum magnitude displayed is 2.5.

Coastal Water Temperatures

Place Temperature

Stations

Nearby Weather Stations

Station Location Temp. Windchill Dew Point Humidity Wind Precip. Elev Updated Type